createdAt,value
2019-04-24T00:00:27.958Z,7.30
2019-04-24T00:02:58.925Z,6.93
2019-04-24T00:05:45.220Z,8.03
2019-04-24T00:08:00.180Z,6.70
2019-04-24T00:13:14.308Z,8.77
2019-04-24T00:15:51.355Z,8.53
2019-04-24T00:21:16.603Z,6.97
2019-04-24T00:26:14.507Z,6.67
2019-04-24T00:29:08.266Z,8.33
2019-04-24T00:31:45.135Z,7.37
2019-04-24T00:36:42.807Z,6.57
2019-04-24T00:39:15.789Z,8.30
2019-04-24T00:44:16.949Z,7.77
2019-04-24T00:49:31.931Z,5.90
2019-04-24T00:51:56.400Z,8.17
2019-04-24T00:54:32.796Z,6.43
2019-04-24T00:57:16.386Z,6.73
2019-04-24T00:59:52.544Z,7.00
2019-04-24T01:02:43.588Z,6.67
2019-04-24T01:05:51.135Z,6.97
2019-04-24T01:08:14.532Z,6.67
2019-04-24T01:11:16.552Z,6.83
2019-04-24T01:13:33.218Z,6.60
2019-04-24T01:18:44.588Z,6.30
2019-04-24T01:21:30.700Z,7.40
2019-04-24T01:23:55.512Z,6.80
2019-04-24T01:26:31.398Z,6.10
2019-04-24T01:31:50.481Z,10.63
2019-04-24T01:40:04.699Z,6.30
2019-04-24T01:43:05.757Z,7.07
2019-04-24T01:55:27.285Z,6.77
2019-04-24T01:58:14.167Z,8.70
2019-04-24T02:03:20.485Z,8.83
2019-04-24T02:09:14.311Z,6.90
2019-04-24T02:11:50.127Z,8.20
2019-04-24T02:14:31.687Z,7.57
2019-04-24T02:17:01.073Z,6.53
2019-04-24T02:19:40.261Z,8.03
2019-04-24T02:22:14.651Z,6.67
2019-04-24T02:24:48.855Z,6.33
2019-04-24T02:27:21.367Z,7.33
2019-04-24T02:29:42.961Z,7.67
2019-04-24T02:38:04.514Z,7.80
2019-04-24T02:43:22.876Z,6.53
2019-04-24T02:45:55.050Z,7.03
2019-04-24T02:48:53.225Z,11.30
2019-04-24T02:51:06.985Z,7.33
2019-04-24T02:56:26.085Z,6.73
2019-04-24T03:01:20.191Z,7.33
2019-04-24T03:04:00.964Z,6.67
2019-04-24T03:06:42.442Z,6.23
2019-04-24T03:09:04.701Z,6.77
2019-04-24T03:12:16.917Z,6.23
2019-04-24T03:14:37.682Z,6.97
2019-04-24T03:19:43.991Z,7.30
2019-04-24T03:25:16.040Z,7.23
2019-04-24T03:30:38.936Z,6.83
2019-04-24T03:41:29.992Z,6.33
2019-04-24T03:43:34.051Z,8.03
2019-04-24T03:45:58.731Z,8.23
2019-04-24T03:48:44.565Z,7.53
2019-04-24T03:53:59.452Z,9.30
2019-04-24T04:04:54.397Z,9.80
2019-04-24T04:12:36.740Z,8.33
2019-04-24T04:23:06.846Z,9.47
2019-04-24T04:25:58.211Z,6.87
2019-04-24T04:38:52.977Z,8.07
2019-04-24T04:41:54.794Z,8.37
2019-04-24T04:47:28.925Z,7.43
2019-04-24T04:50:19.896Z,6.97
2019-04-24T04:56:08.191Z,8.23
2019-04-24T05:06:34.031Z,7.50
2019-04-24T05:11:50.789Z,6.97
2019-04-24T05:14:42.373Z,7.00
2019-04-24T05:22:10.891Z,7.17
2019-04-24T05:24:46.670Z,8.43
2019-04-24T05:30:13.875Z,8.90
2019-04-24T05:33:03.325Z,7.53
2019-04-24T05:35:26.410Z,6.33
2019-04-24T05:38:12.769Z,7.43
2019-04-24T05:43:37.419Z,6.30
2019-04-24T05:51:11.401Z,5.83
2019-04-24T05:54:15.794Z,7.10
2019-04-24T05:57:02.191Z,6.70
2019-04-24T06:07:46.827Z,6.33
2019-04-24T06:10:43.709Z,7.03
2019-04-24T06:13:41.756Z,6.43
2019-04-24T06:16:35.438Z,6.37
2019-04-24T06:21:48.197Z,4.50
2019-04-24T06:24:26.767Z,5.10
2019-04-24T06:29:53.365Z,6.53
2019-04-24T06:32:22.792Z,4.47
2019-04-24T06:35:42.109Z,4.80
2019-04-24T06:40:58.979Z,6.00
2019-04-24T06:43:48.610Z,4.37
2019-04-24T06:46:15.238Z,4.20
2019-04-24T06:48:50.640Z,6.47
2019-04-24T06:51:23.671Z,5.23
2019-04-24T06:54:30.777Z,4.70
2019-04-24T06:59:28.949Z,5.40
2019-04-24T07:02:18.068Z,4.30
2019-04-24T07:05:14.566Z,4.67
2019-04-24T07:13:49.577Z,4.70
2019-04-24T07:16:33.781Z,4.57
2019-04-24T07:18:34.422Z,4.30
2019-04-24T07:21:48.809Z,4.00
2019-04-24T07:24:19.134Z,5.57
2019-04-24T07:26:42.363Z,4.57
2019-04-24T07:29:32.811Z,5.20
2019-04-24T07:32:33.172Z,5.03
2019-04-24T07:46:05.925Z,4.93
2019-04-24T07:51:14.669Z,3.93
2019-04-24T07:59:55.071Z,3.90
2019-04-24T08:02:33.363Z,5.43
2019-04-24T08:05:03.435Z,3.73
2019-04-24T08:07:44.033Z,3.47
2019-04-24T08:16:03.226Z,5.53
2019-04-24T08:23:48.456Z,6.07
2019-04-24T08:26:09.775Z,5.40
2019-04-24T08:28:54.655Z,5.50
2019-04-24T08:39:44.594Z,4.13
2019-04-24T08:42:27.085Z,3.77
2019-04-24T08:45:06.756Z,3.30
2019-04-24T08:47:45.239Z,4.13
2019-04-24T08:50:17.018Z,4.27
2019-04-24T08:52:50.834Z,5.47
2019-04-24T08:55:20.083Z,10.53
2019-04-24T08:58:12.444Z,4.20
2019-04-24T09:00:57.335Z,2.30
2019-04-24T09:03:58.498Z,5.83
2019-04-24T09:06:12.195Z,2.30
2019-04-24T09:12:08.181Z,1.97
2019-04-24T09:17:20.713Z,3.13
2019-04-24T09:20:08.083Z,3.77
2019-04-24T09:22:29.797Z,2.17
2019-04-24T09:28:18.764Z,2.03
2019-04-24T09:30:38.450Z,2.23
2019-04-24T09:33:16.601Z,3.80
2019-04-24T09:39:01.077Z,4.57
2019-04-24T09:41:45.160Z,3.70
2019-04-24T09:46:43.908Z,4.07
2019-04-24T09:51:53.979Z,3.23
2019-04-24T09:54:52.842Z,4.83
2019-04-24T09:57:31.174Z,3.97
2019-04-24T09:59:47.865Z,3.70
2019-04-24T10:02:55.963Z,2.23
2019-04-24T10:05:25.371Z,4.25
2019-04-24T10:08:04.034Z,3.37
2019-04-24T10:10:42.055Z,2.33
2019-04-24T10:13:11.704Z,3.73
2019-04-24T10:18:38.250Z,2.87
2019-04-24T10:20:55.916Z,2.33
2019-04-24T10:24:02.984Z,2.95
2019-04-24T10:26:42.334Z,2.98
2019-04-24T10:29:37.808Z,4.87
2019-04-24T10:32:20.393Z,2.22
2019-04-24T10:35:33.757Z,2.87
2019-04-24T10:40:57.747Z,3.42
2019-04-24T10:43:45.787Z,6.75
2019-04-24T10:46:42.185Z,2.55
2019-04-24T10:49:25.108Z,4.12
2019-04-24T10:52:03.869Z,2.17
2019-04-24T10:54:38.516Z,3.30
2019-04-24T10:57:06.362Z,3.50
2019-04-24T11:05:52.651Z,2.90
2019-04-24T11:11:57.716Z,2.72
2019-04-24T11:17:23.833Z,6.10
2019-04-24T11:20:17.782Z,3.10
2019-04-24T11:23:15.083Z,5.17
2019-04-24T11:31:39.257Z,3.10
2019-04-24T11:34:44.148Z,3.45
2019-04-24T11:37:11.486Z,3.30
2019-04-24T11:40:30.934Z,2.72
2019-04-24T11:42:37.846Z,4.62
2019-04-24T11:45:20.206Z,3.30
2019-04-24T11:48:08.608Z,2.65
2019-04-24T11:51:06.759Z,1.90
2019-04-24T11:55:55.007Z,2.77
2019-04-24T12:04:24.572Z,2.65
2019-04-24T12:06:55.111Z,2.17
2019-04-24T12:09:27.920Z,4.05
2019-04-24T12:12:00.438Z,3.95
2019-04-24T12:15:05.175Z,3.58
2019-04-24T12:17:55.376Z,2.22
2019-04-24T12:20:52.030Z,2.30
2019-04-24T12:23:17.497Z,2.08
2019-04-24T12:30:58.052Z,3.12
2019-04-24T12:33:43.768Z,2.20
2019-04-24T12:36:13.073Z,4.42
2019-04-24T12:39:04.044Z,2.67
2019-04-24T12:41:37.809Z,3.40
2019-04-24T12:52:22.605Z,2.37
2019-04-24T12:55:12.583Z,3.75
2019-04-24T13:04:20.329Z,1.45
2019-04-24T13:06:33.418Z,3.22
2019-04-24T13:12:15.955Z,1.95
2019-04-24T13:14:55.914Z,1.50
2019-04-24T13:17:33.457Z,2.87
2019-04-24T13:19:30.580Z,4.80
2019-04-24T13:22:09.807Z,1.00
2019-04-24T13:25:20.710Z,2.35
2019-04-24T13:33:36.878Z,1.27
2019-04-24T13:38:45.267Z,2.70
2019-04-24T13:41:06.462Z,1.98
2019-04-24T13:46:17.191Z,1.22
2019-04-24T13:49:06.574Z,2.87
2019-04-24T13:51:33.335Z,2.65
2019-04-24T13:54:08.918Z,2.98
2019-04-24T13:56:37.889Z,2.92
2019-04-24T13:59:08.990Z,1.87
2019-04-24T14:01:48.159Z,2.33
2019-04-24T14:04:15.757Z,3.08
2019-04-24T14:10:15.127Z,2.65
2019-04-24T14:14:51.776Z,1.35
2019-04-24T14:17:09.714Z,2.20
2019-04-24T14:22:50.665Z,2.12
2019-04-24T14:28:00.182Z,3.35
2019-04-24T14:30:18.809Z,1.35
2019-04-24T14:35:40.589Z,5.15
2019-04-24T14:38:20.635Z,3.30
2019-04-24T14:40:39.930Z,2.27
2019-04-24T14:43:13.425Z,2.47
2019-04-24T14:46:05.023Z,2.75
2019-04-24T14:48:21.976Z,2.52
2019-04-24T14:50:48.967Z,2.40
2019-04-24T14:53:28.450Z,2.42
2019-04-24T14:56:11.358Z,5.75
2019-04-24T14:58:46.302Z,1.75
2019-04-24T15:03:47.775Z,4.17
2019-04-24T15:06:25.498Z,4.42
2019-04-24T15:09:07.090Z,3.90
2019-04-24T15:11:46.595Z,1.60
2019-04-24T15:14:33.974Z,1.32
2019-04-24T15:17:25.349Z,1.65
2019-04-24T15:20:02.287Z,3.52
2019-04-24T15:22:29.306Z,2.02
2019-04-24T15:27:34.021Z,2.80
2019-04-24T15:30:00.099Z,1.75
2019-04-24T15:32:41.484Z,2.12
2019-04-24T15:35:18.325Z,2.42
2019-04-24T15:37:54.422Z,2.72
2019-04-24T15:40:35.396Z,2.20
2019-04-24T15:43:02.546Z,3.35
2019-04-24T15:45:30.498Z,2.55
2019-04-24T15:48:17.391Z,2.33
2019-04-24T15:50:48.979Z,2.95
2019-04-24T15:52:44.086Z,2.85
2019-04-24T15:55:39.162Z,3.72
2019-04-24T15:58:19.839Z,4.17
2019-04-24T16:01:20.557Z,3.30
2019-04-24T16:03:55.309Z,1.82
2019-04-24T16:06:13.351Z,4.10
2019-04-24T16:08:45.676Z,5.08
2019-04-24T16:11:17.537Z,3.70
2019-04-24T16:13:58.935Z,2.40
2019-04-24T16:19:35.037Z,5.15
2019-04-24T16:22:00.015Z,1.42
2019-04-24T16:29:40.842Z,3.55
2019-04-24T16:32:38.214Z,3.45
2019-04-24T16:34:53.482Z,6.33
2019-04-24T16:43:09.512Z,2.05
2019-04-24T16:45:45.231Z,2.30
2019-04-24T16:48:26.656Z,3.65
2019-04-24T16:53:14.313Z,2.55
2019-04-24T16:55:34.380Z,3.62
2019-04-24T17:03:46.339Z,2.45
2019-04-24T17:06:22.021Z,3.10
2019-04-24T17:08:52.873Z,4.42
2019-04-24T17:11:26.502Z,4.40
2019-04-24T17:14:25.664Z,2.75
2019-04-24T17:19:48.604Z,5.75
2019-04-24T17:24:53.358Z,3.55
2019-04-24T17:27:21.883Z,3.22
2019-04-24T17:30:07.185Z,2.77
2019-04-24T17:35:13.342Z,6.90
2019-04-24T17:37:13.427Z,6.60
2019-04-24T17:39:51.977Z,3.20
2019-04-24T17:42:36.409Z,4.20
2019-04-24T17:48:03.244Z,6.10
2019-04-24T17:50:30.665Z,3.35
2019-04-24T17:53:16.746Z,7.30
2019-04-24T17:55:39.076Z,3.85
2019-04-24T17:57:48.876Z,3.67
2019-04-24T18:00:38.436Z,1.90
2019-04-24T18:03:13.008Z,5.15
2019-04-24T18:05:44.629Z,2.92
2019-04-24T18:08:29.617Z,4.47
2019-04-24T18:11:03.166Z,2.02
2019-04-24T18:13:37.570Z,3.70
2019-04-24T18:16:10.699Z,2.37
2019-04-24T18:18:44.176Z,3.80
2019-04-24T18:21:16.350Z,4.12
2019-04-24T18:23:48.654Z,4.37
2019-04-24T18:26:48.944Z,4.85
2019-04-24T18:29:22.345Z,3.23
2019-04-24T18:31:54.789Z,5.67
2019-04-24T18:34:31.798Z,4.75
2019-04-24T18:37:04.436Z,2.77
2019-04-24T18:39:37.080Z,3.20
2019-04-24T18:42:09.213Z,3.57
2019-04-24T18:44:41.560Z,1.63
2019-04-24T18:47:14.993Z,3.20
2019-04-24T18:50:06.509Z,1.83
2019-04-24T18:52:49.202Z,2.10
2019-04-24T18:55:13.522Z,3.53
2019-04-24T18:57:46.427Z,3.03
2019-04-24T19:00:19.438Z,4.10
2019-04-24T19:02:51.938Z,2.80
2019-04-24T19:05:23.873Z,1.10
2019-04-24T19:07:56.238Z,95.97
2019-04-24T19:10:29.972Z,66.53
2019-04-24T19:13:01.787Z,62.37
2019-04-24T19:15:33.686Z,45.00
2019-04-24T19:18:07.760Z,36.93
2019-04-24T19:20:41.970Z,26.13
2019-04-24T19:23:14.868Z,18.20
2019-04-24T19:25:47.145Z,10.00
2019-04-24T19:28:24.868Z,13.10
2019-04-24T19:30:57.098Z,13.97
2019-04-24T19:33:30.921Z,17.57
2019-04-24T19:36:03.609Z,18.40
2019-04-24T19:38:35.471Z,8.47
2019-04-24T19:41:07.968Z,6.70
2019-04-24T19:43:40.731Z,7.00
2019-04-24T19:46:15.484Z,7.83
2019-04-24T19:48:46.759Z,12.80
2019-04-24T19:51:36.384Z,5.63
2019-04-24T19:54:08.891Z,8.97
2019-04-24T19:56:40.750Z,6.67
2019-04-24T19:59:13.160Z,5.93
2019-04-24T20:01:45.074Z,5.07
2019-04-24T20:04:17.396Z,6.50
2019-04-24T20:06:49.442Z,2.93
2019-04-24T20:09:49.820Z,4.07
2019-04-24T20:12:23.254Z,3.90
2019-04-24T20:14:57.266Z,2.13
2019-04-24T20:17:29.186Z,1.20
2019-04-24T20:20:01.651Z,4.87
2019-04-24T20:22:35.201Z,2.73
2019-04-24T20:25:08.398Z,3.07
2019-04-24T20:27:41.573Z,4.07
2019-04-24T20:30:15.963Z,2.53
2019-04-24T20:32:48.302Z,3.93
2019-04-24T20:35:20.729Z,1.80
2019-04-24T20:37:53.819Z,3.97
2019-04-24T20:40:26.678Z,0.77
2019-04-24T20:42:59.366Z,2.10
2019-04-24T20:45:31.694Z,1.90
2019-04-24T20:48:04.049Z,1.70
2019-04-24T20:50:35.967Z,2.33
2019-04-24T20:53:08.850Z,6.50
2019-04-24T20:55:41.595Z,2.30
2019-04-24T20:58:13.528Z,1.10
2019-04-24T21:00:45.410Z,4.40
2019-04-24T21:03:19.500Z,3.13
2019-04-24T21:06:24.868Z,4.83
2019-04-24T21:09:22.640Z,3.47
2019-04-24T21:11:55.188Z,4.47
2019-04-24T21:14:27.064Z,1.43
2019-04-24T21:16:58.859Z,2.63
2019-04-24T21:19:33.687Z,2.30
2019-04-24T21:22:05.335Z,2.93
2019-04-24T21:24:37.188Z,0.43
2019-04-24T21:27:09.419Z,3.30
2019-04-24T21:29:42.974Z,1.37
2019-04-24T21:32:14.865Z,1.67
2019-04-24T21:34:47.211Z,1.87
2019-04-24T21:37:19.491Z,2.63
2019-04-24T21:39:51.596Z,3.03
2019-04-24T21:42:25.938Z,2.43
2019-04-24T21:44:57.871Z,1.20
2019-04-24T21:47:30.362Z,1.93
2019-04-24T21:50:04.036Z,2.77
2019-04-24T21:52:36.783Z,2.33
2019-04-24T21:55:11.198Z,1.70
2019-04-24T21:58:02.341Z,1.10
2019-04-24T22:00:58.063Z,3.00
2019-04-24T22:03:51.263Z,2.13
2019-04-24T22:06:32.129Z,2.60
2019-04-24T22:09:09.004Z,4.17
2019-04-24T22:11:43.226Z,2.53
2019-04-24T22:14:15.957Z,1.30
2019-04-24T22:16:48.074Z,2.63
2019-04-24T22:19:20.061Z,2.40
2019-04-24T22:22:01.302Z,2.10
2019-04-24T22:25:11.699Z,1.23
2019-04-24T22:27:44.612Z,1.37
2019-04-24T22:30:39.107Z,1.07
2019-04-24T22:33:13.108Z,1.50
2019-04-24T22:35:46.619Z,2.40
2019-04-24T22:38:21.266Z,1.77
2019-04-24T22:41:02.472Z,1.00
2019-04-24T22:43:34.456Z,1.60
2019-04-24T22:46:06.348Z,1.60
2019-04-24T22:48:38.853Z,2.70
2019-04-24T22:51:12.228Z,0.77
2019-04-24T22:53:44.526Z,0.80
2019-04-24T22:56:16.356Z,1.00
2019-04-24T22:58:48.227Z,0.80
2019-04-24T23:01:20.185Z,1.20
2019-04-24T23:03:52.093Z,1.57
2019-04-24T23:06:24.101Z,2.83
2019-04-24T23:08:55.957Z,1.77
2019-04-24T23:11:28.316Z,3.90
2019-04-24T23:14:00.622Z,1.83
2019-04-24T23:16:33.758Z,1.93
2019-04-24T23:19:06.890Z,2.03
2019-04-24T23:22:02.303Z,2.00
2019-04-24T23:24:54.073Z,1.10
2019-04-24T23:27:39.608Z,2.37
2019-04-24T23:30:22.231Z,4.13
2019-04-24T23:33:06.918Z,1.80
2019-04-24T23:35:39.435Z,0.83
2019-04-24T23:38:12.892Z,1.83
2019-04-24T23:40:45.913Z,0.70
2019-04-24T23:43:17.709Z,1.27
2019-04-24T23:45:51.699Z,1.10
2019-04-24T23:48:23.529Z,4.53
2019-04-24T23:50:55.801Z,1.53
2019-04-24T23:53:27.641Z,2.83
2019-04-24T23:55:59.461Z,1.70
2019-04-24T23:58:31.282Z,1.37
